sensor_id;sensor_type;location;lat;lon;timestamp;P1;durP1;ratioP1;P2;durP2;ratioP2
64682;SDS011;51107;47.652;19.016;2023-11-22T00:01:58;10.30;;;4.82;;
64682;SDS011;51107;47.652;19.016;2023-11-22T00:04:27;8.77;;;4.28;;
64682;SDS011;51107;47.652;19.016;2023-11-22T00:06:55;15.52;;;5.05;;
64682;SDS011;51107;47.652;19.016;2023-11-22T00:09:23;8.75;;;4.18;;
64682;SDS011;51107;47.652;19.016;2023-11-22T00:11:51;9.88;;;4.90;;
64682;SDS011;51107;47.652;19.016;2023-11-22T00:14:20;7.50;;;4.20;;
64682;SDS011;51107;47.652;19.016;2023-11-22T00:16:49;8.40;;;3.92;;
64682;SDS011;51107;47.652;19.016;2023-11-22T00:19:18;7.70;;;3.75;;
64682;SDS011;51107;47.652;19.016;2023-11-22T00:21:49;7.57;;;3.92;;
64682;SDS011;51107;47.652;19.016;2023-11-22T00:24:18;6.85;;;3.83;;
64682;SDS011;51107;47.652;19.016;2023-11-22T00:26:46;5.80;;;3.20;;
64682;SDS011;51107;47.652;19.016;2023-11-22T00:29:14;4.57;;;2.87;;
64682;SDS011;51107;47.652;19.016;2023-11-22T00:31:42;7.22;;;3.90;;
64682;SDS011;51107;47.652;19.016;2023-11-22T00:34:12;6.78;;;4.15;;
64682;SDS011;51107;47.652;19.016;2023-11-22T00:36:43;12.10;;;3.90;;
64682;SDS011;51107;47.652;19.016;2023-11-22T00:39:12;8.82;;;5.00;;
64682;SDS011;51107;47.652;19.016;2023-11-22T00:41:40;9.73;;;3.40;;
64682;SDS011;51107;47.652;19.016;2023-11-22T00:44:09;9.35;;;3.33;;
64682;SDS011;51107;47.652;19.016;2023-11-22T00:46:38;11.75;;;4.45;;
64682;SDS011;51107;47.652;19.016;2023-11-22T00:49:06;12.30;;;3.92;;
64682;SDS011;51107;47.652;19.016;2023-11-22T00:51:34;10.82;;;3.95;;
64682;SDS011;51107;47.652;19.016;2023-11-22T00:54:02;14.23;;;4.65;;
64682;SDS011;51107;47.652;19.016;2023-11-22T00:56:30;7.43;;;3.62;;
64682;SDS011;51107;47.652;19.016;2023-11-22T00:59:01;13.62;;;4.47;;
64682;SDS011;51107;47.652;19.016;2023-11-22T01:01:31;11.12;;;5.45;;
64682;SDS011;51107;47.652;19.016;2023-11-22T01:04:00;12.25;;;5.10;;
64682;SDS011;51107;47.652;19.016;2023-11-22T01:06:28;10.73;;;4.18;;
64682;SDS011;51107;47.652;19.016;2023-11-22T01:08:56;9.50;;;4.20;;
64682;SDS011;51107;47.652;19.016;2023-11-22T01:11:25;12.37;;;5.82;;
64682;SDS011;51107;47.652;19.016;2023-11-22T01:13:53;8.02;;;3.45;;
64682;SDS011;51107;47.652;19.016;2023-11-22T01:16:22;8.85;;;4.30;;
64682;SDS011;51107;47.652;19.016;2023-11-22T01:18:50;7.10;;;3.97;;
64682;SDS011;51107;47.652;19.016;2023-11-22T01:21:20;5.07;;;2.95;;
64682;SDS011;51107;47.652;19.016;2023-11-22T01:23:48;7.12;;;3.67;;
64682;SDS011;51107;47.652;19.016;2023-11-22T01:26:16;5.43;;;2.67;;
64682;SDS011;51107;47.652;19.016;2023-11-22T01:28:44;5.50;;;3.33;;
64682;SDS011;51107;47.652;19.016;2023-11-22T01:31:13;8.77;;;4.78;;
64682;SDS011;51107;47.652;19.016;2023-11-22T01:33:42;9.73;;;4.28;;
64682;SDS011;51107;47.652;19.016;2023-11-22T01:36:10;10.68;;;5.68;;
64682;SDS011;51107;47.652;19.016;2023-11-22T01:38:38;13.40;;;4.32;;
64682;SDS011;51107;47.652;19.016;2023-11-22T01:41:07;7.97;;;2.97;;
64682;SDS011;51107;47.652;19.016;2023-11-22T01:43:36;10.13;;;3.85;;
64682;SDS011;51107;47.652;19.016;2023-11-22T01:46:04;7.70;;;3.75;;
64682;SDS011;51107;47.652;19.016;2023-11-22T01:48:32;8.05;;;3.17;;
64682;SDS011;51107;47.652;19.016;2023-11-22T01:51:03;6.55;;;3.83;;
64682;SDS011;51107;47.652;19.016;2023-11-22T01:53:31;2.67;;;2.08;;
64682;SDS011;51107;47.652;19.016;2023-11-22T01:56:01;7.68;;;3.30;;
64682;SDS011;51107;47.652;19.016;2023-11-22T01:58:29;5.65;;;3.42;;
64682;SDS011;51107;47.652;19.016;2023-11-22T02:00:58;5.87;;;3.92;;
64682;SDS011;51107;47.652;19.016;2023-11-22T02:03:28;8.88;;;3.35;;
64682;SDS011;51107;47.652;19.016;2023-11-22T02:05:58;6.60;;;3.37;;
64682;SDS011;51107;47.652;19.016;2023-11-22T02:08:28;7.40;;;3.17;;
64682;SDS011;51107;47.652;19.016;2023-11-22T02:11:00;9.82;;;3.58;;
64682;SDS011;51107;47.652;19.016;2023-11-22T02:13:33;2.87;;;2.10;;
64682;SDS011;51107;47.652;19.016;2023-11-22T02:16:01;4.47;;;2.47;;
64682;SDS011;51107;47.652;19.016;2023-11-22T02:18:31;6.40;;;2.53;;
64682;SDS011;51107;47.652;19.016;2023-11-22T02:21:00;3.85;;;2.40;;
64682;SDS011;51107;47.652;19.016;2023-11-22T02:23:28;5.95;;;2.85;;
64682;SDS011;51107;47.652;19.016;2023-11-22T02:25:56;6.45;;;3.80;;
64682;SDS011;51107;47.652;19.016;2023-11-22T02:28:26;5.95;;;2.40;;
64682;SDS011;51107;47.652;19.016;2023-11-22T02:30:54;4.40;;;2.60;;
64682;SDS011;51107;47.652;19.016;2023-11-22T02:33:23;7.10;;;2.87;;
64682;SDS011;51107;47.652;19.016;2023-11-22T02:35:51;3.22;;;2.35;;
64682;SDS011;51107;47.652;19.016;2023-11-22T02:38:19;8.65;;;3.10;;
64682;SDS011;51107;47.652;19.016;2023-11-22T02:40:48;6.37;;;2.58;;
64682;SDS011;51107;47.652;19.016;2023-11-22T02:43:18;9.70;;;3.65;;
64682;SDS011;51107;47.652;19.016;2023-11-22T02:45:46;6.47;;;2.60;;
64682;SDS011;51107;47.652;19.016;2023-11-22T02:48:15;5.00;;;2.45;;
64682;SDS011;51107;47.652;19.016;2023-11-22T02:50:43;6.35;;;2.83;;
64682;SDS011;51107;47.652;19.016;2023-11-22T02:53:12;6.32;;;2.72;;
64682;SDS011;51107;47.652;19.016;2023-11-22T02:55:40;8.82;;;2.95;;
64682;SDS011;51107;47.652;19.016;2023-11-22T02:58:08;5.68;;;3.12;;
64682;SDS011;51107;47.652;19.016;2023-11-22T03:00:37;14.30;;;5.00;;
64682;SDS011;51107;47.652;19.016;2023-11-22T03:03:05;6.15;;;3.97;;
64682;SDS011;51107;47.652;19.016;2023-11-22T03:05:37;3.95;;;2.60;;
64682;SDS011;51107;47.652;19.016;2023-11-22T03:08:06;3.70;;;1.98;;
64682;SDS011;51107;47.652;19.016;2023-11-22T03:10:35;5.00;;;2.70;;
64682;SDS011;51107;47.652;19.016;2023-11-22T03:13:04;5.75;;;2.28;;
64682;SDS011;51107;47.652;19.016;2023-11-22T03:15:33;6.68;;;2.25;;
64682;SDS011;51107;47.652;19.016;2023-11-22T03:18:01;4.25;;;2.30;;
64682;SDS011;51107;47.652;19.016;2023-11-22T03:20:29;5.95;;;2.72;;
64682;SDS011;51107;47.652;19.016;2023-11-22T03:22:58;3.97;;;2.35;;
64682;SDS011;51107;47.652;19.016;2023-11-22T03:25:29;4.72;;;2.05;;
64682;SDS011;51107;47.652;19.016;2023-11-22T03:27:57;5.03;;;2.70;;
64682;SDS011;51107;47.652;19.016;2023-11-22T03:30:25;4.82;;;2.30;;
64682;SDS011;51107;47.652;19.016;2023-11-22T03:32:53;4.12;;;2.42;;
64682;SDS011;51107;47.652;19.016;2023-11-22T03:35:23;6.93;;;3.25;;
64682;SDS011;51107;47.652;19.016;2023-11-22T03:37:51;7.75;;;2.37;;
64682;SDS011;51107;47.652;19.016;2023-11-22T03:40:19;4.78;;;2.37;;
64682;SDS011;51107;47.652;19.016;2023-11-22T03:42:48;2.55;;;1.67;;
64682;SDS011;51107;47.652;19.016;2023-11-22T03:45:16;10.50;;;3.37;;
64682;SDS011;51107;47.652;19.016;2023-11-22T03:47:44;5.80;;;2.67;;
64682;SDS011;51107;47.652;19.016;2023-11-22T03:50:12;5.62;;;3.10;;
64682;SDS011;51107;47.652;19.016;2023-11-22T03:52:42;5.72;;;2.70;;
64682;SDS011;51107;47.652;19.016;2023-11-22T03:55:10;4.72;;;3.12;;
64682;SDS011;51107;47.652;19.016;2023-11-22T03:57:39;3.58;;;2.10;;
64682;SDS011;51107;47.652;19.016;2023-11-22T04:00:07;5.70;;;2.70;;
64682;SDS011;51107;47.652;19.016;2023-11-22T04:02:38;4.85;;;2.92;;
64682;SDS011;51107;47.652;19.016;2023-11-22T04:05:08;3.10;;;1.77;;
64682;SDS011;51107;47.652;19.016;2023-11-22T04:07:39;4.22;;;2.17;;
64682;SDS011;51107;47.652;19.016;2023-11-22T04:10:07;6.95;;;3.17;;
64682;SDS011;51107;47.652;19.016;2023-11-22T04:12:36;4.95;;;2.75;;
64682;SDS011;51107;47.652;19.016;2023-11-22T04:15:05;9.20;;;2.80;;
64682;SDS011;51107;47.652;19.016;2023-11-22T04:17:38;6.05;;;3.05;;
64682;SDS011;51107;47.652;19.016;2023-11-22T04:20:06;5.00;;;2.80;;
64682;SDS011;51107;47.652;19.016;2023-11-22T04:22:42;7.00;;;2.70;;
64682;SDS011;51107;47.652;19.016;2023-11-22T04:25:13;3.33;;;2.08;;
64682;SDS011;51107;47.652;19.016;2023-11-22T04:27:41;6.12;;;2.72;;
64682;SDS011;51107;47.652;19.016;2023-11-22T04:30:10;4.20;;;2.50;;
64682;SDS011;51107;47.652;19.016;2023-11-22T04:32:42;5.93;;;1.80;;
64682;SDS011;51107;47.652;19.016;2023-11-22T04:35:11;4.20;;;2.78;;
64682;SDS011;51107;47.652;19.016;2023-11-22T04:37:39;6.00;;;2.20;;
64682;SDS011;51107;47.652;19.016;2023-11-22T04:40:08;5.55;;;2.90;;
64682;SDS011;51107;47.652;19.016;2023-11-22T04:42:37;4.53;;;2.47;;
64682;SDS011;51107;47.652;19.016;2023-11-22T04:45:05;3.65;;;2.03;;
64682;SDS011;51107;47.652;19.016;2023-11-22T04:47:34;4.62;;;2.28;;
64682;SDS011;51107;47.652;19.016;2023-11-22T04:50:02;4.28;;;2.28;;
64682;SDS011;51107;47.652;19.016;2023-11-22T04:52:32;6.78;;;2.22;;
64682;SDS011;51107;47.652;19.016;2023-11-22T04:55:00;5.97;;;3.08;;
64682;SDS011;51107;47.652;19.016;2023-11-22T04:57:28;7.75;;;4.18;;
64682;SDS011;51107;47.652;19.016;2023-11-22T04:59:56;5.95;;;2.85;;
64682;SDS011;51107;47.652;19.016;2023-11-22T05:02:25;5.45;;;2.80;;
64682;SDS011;51107;47.652;19.016;2023-11-22T05:04:54;1.92;;;1.37;;
64682;SDS011;51107;47.652;19.016;2023-11-22T05:07:24;3.22;;;1.95;;
64682;SDS011;51107;47.652;19.016;2023-11-22T05:09:53;2.75;;;1.48;;
64682;SDS011;51107;47.652;19.016;2023-11-22T05:12:22;4.12;;;1.85;;
64682;SDS011;51107;47.652;19.016;2023-11-22T05:14:50;11.50;;;3.83;;
64682;SDS011;51107;47.652;19.016;2023-11-22T05:17:18;5.60;;;2.47;;
64682;SDS011;51107;47.652;19.016;2023-11-22T05:19:46;5.80;;;2.90;;
64682;SDS011;51107;47.652;19.016;2023-11-22T05:22:15;11.80;;;5.45;;
64682;SDS011;51107;47.652;19.016;2023-11-22T05:24:43;6.50;;;3.45;;
64682;SDS011;51107;47.652;19.016;2023-11-22T05:27:11;5.25;;;2.85;;
64682;SDS011;51107;47.652;19.016;2023-11-22T05:29:40;5.10;;;2.58;;
64682;SDS011;51107;47.652;19.016;2023-11-22T05:32:19;4.05;;;2.12;;
64682;SDS011;51107;47.652;19.016;2023-11-22T05:34:48;5.22;;;1.62;;
64682;SDS011;51107;47.652;19.016;2023-11-22T05:37:16;3.65;;;1.75;;
64682;SDS011;51107;47.652;19.016;2023-11-22T05:39:44;3.53;;;2.47;;
64682;SDS011;51107;47.652;19.016;2023-11-22T05:42:13;3.87;;;2.12;;
64682;SDS011;51107;47.652;19.016;2023-11-22T05:44:42;3.62;;;1.67;;
64682;SDS011;51107;47.652;19.016;2023-11-22T05:47:12;3.25;;;1.60;;
64682;SDS011;51107;47.652;19.016;2023-11-22T05:49:41;5.22;;;1.85;;
64682;SDS011;51107;47.652;19.016;2023-11-22T05:52:09;6.03;;;2.92;;
64682;SDS011;51107;47.652;19.016;2023-11-22T05:54:37;6.07;;;3.37;;
64682;SDS011;51107;47.652;19.016;2023-11-22T05:57:06;3.42;;;1.73;;
64682;SDS011;51107;47.652;19.016;2023-11-22T05:59:34;3.58;;;2.05;;
64682;SDS011;51107;47.652;19.016;2023-11-22T06:02:02;2.78;;;1.50;;
64682;SDS011;51107;47.652;19.016;2023-11-22T06:04:31;3.90;;;2.05;;
64682;SDS011;51107;47.652;19.016;2023-11-22T06:07:01;4.20;;;2.55;;
64682;SDS011;51107;47.652;19.016;2023-11-22T06:09:29;6.85;;;3.58;;
64682;SDS011;51107;47.652;19.016;2023-11-22T06:11:57;9.35;;;4.22;;
64682;SDS011;51107;47.652;19.016;2023-11-22T06:14:26;4.57;;;2.78;;
64682;SDS011;51107;47.652;19.016;2023-11-22T06:16:54;6.45;;;3.25;;
64682;SDS011;51107;47.652;19.016;2023-11-22T06:19:22;4.30;;;2.40;;
64682;SDS011;51107;47.652;19.016;2023-11-22T06:21:50;7.75;;;4.45;;
64682;SDS011;51107;47.652;19.016;2023-11-22T06:24:18;5.40;;;3.20;;
64682;SDS011;51107;47.652;19.016;2023-11-22T06:26:48;6.93;;;3.10;;
64682;SDS011;51107;47.652;19.016;2023-11-22T06:29:17;6.22;;;4.15;;
64682;SDS011;51107;47.652;19.016;2023-11-22T06:31:45;5.65;;;3.47;;
64682;SDS011;51107;47.652;19.016;2023-11-22T06:34:14;13.57;;;4.15;;
64682;SDS011;51107;47.652;19.016;2023-11-22T06:36:42;9.25;;;4.40;;
64682;SDS011;51107;47.652;19.016;2023-11-22T06:39:10;9.35;;;4.35;;
64682;SDS011;51107;47.652;19.016;2023-11-22T06:41:41;8.88;;;3.65;;
64682;SDS011;51107;47.652;19.016;2023-11-22T06:44:09;11.00;;;4.32;;
64682;SDS011;51107;47.652;19.016;2023-11-22T06:46:38;12.63;;;5.50;;
64682;SDS011;51107;47.652;19.016;2023-11-22T06:49:06;9.25;;;4.57;;
64682;SDS011;51107;47.652;19.016;2023-11-22T06:51:34;7.07;;;4.65;;
64682;SDS011;51107;47.652;19.016;2023-11-22T06:54:02;9.13;;;4.72;;
64682;SDS011;51107;47.652;19.016;2023-11-22T06:56:31;10.93;;;4.78;;
64682;SDS011;51107;47.652;19.016;2023-11-22T06:59:00;7.57;;;4.25;;
64682;SDS011;51107;47.652;19.016;2023-11-22T07:01:28;11.05;;;4.87;;
64682;SDS011;51107;47.652;19.016;2023-11-22T07:03:57;6.75;;;3.58;;
64682;SDS011;51107;47.652;19.016;2023-11-22T07:06:27;8.63;;;5.28;;
64682;SDS011;51107;47.652;19.016;2023-11-22T07:08:55;7.75;;;3.65;;
64682;SDS011;51107;47.652;19.016;2023-11-22T07:11:24;8.85;;;4.07;;
64682;SDS011;51107;47.652;19.016;2023-11-22T07:13:53;6.80;;;3.55;;
64682;SDS011;51107;47.652;19.016;2023-11-22T07:16:21;5.15;;;2.72;;
64682;SDS011;51107;47.652;19.016;2023-11-22T07:18:49;4.95;;;2.62;;
64682;SDS011;51107;47.652;19.016;2023-11-22T07:21:18;7.53;;;3.20;;
64682;SDS011;51107;47.652;19.016;2023-11-22T07:23:48;7.87;;;4.20;;
64682;SDS011;51107;47.652;19.016;2023-11-22T07:26:19;7.93;;;3.83;;
64682;SDS011;51107;47.652;19.016;2023-11-22T07:28:48;9.30;;;4.35;;
64682;SDS011;51107;47.652;19.016;2023-11-22T07:31:16;6.82;;;3.95;;
64682;SDS011;51107;47.652;19.016;2023-11-22T07:33:45;8.27;;;4.87;;
64682;SDS011;51107;47.652;19.016;2023-11-22T07:36:16;6.85;;;3.50;;
64682;SDS011;51107;47.652;19.016;2023-11-22T07:38:45;4.82;;;2.95;;
64682;SDS011;51107;47.652;19.016;2023-11-22T07:41:13;5.75;;;3.58;;
64682;SDS011;51107;47.652;19.016;2023-11-22T07:43:41;6.20;;;3.55;;
64682;SDS011;51107;47.652;19.016;2023-11-22T07:46:10;8.32;;;4.68;;
64682;SDS011;51107;47.652;19.016;2023-11-22T07:48:41;6.68;;;3.40;;
64682;SDS011;51107;47.652;19.016;2023-11-22T07:51:10;3.15;;;2.15;;
64682;SDS011;51107;47.652;19.016;2023-11-22T07:53:40;5.47;;;2.67;;
64682;SDS011;51107;47.652;19.016;2023-11-22T07:56:08;5.12;;;3.20;;
64682;SDS011;51107;47.652;19.016;2023-11-22T07:58:38;6.37;;;3.12;;
64682;SDS011;51107;47.652;19.016;2023-11-22T08:01:06;7.78;;;3.67;;
64682;SDS011;51107;47.652;19.016;2023-11-22T08:03:41;7.10;;;4.00;;
64682;SDS011;51107;47.652;19.016;2023-11-22T08:06:15;10.43;;;4.10;;
64682;SDS011;51107;47.652;19.016;2023-11-22T08:08:44;9.32;;;4.45;;
64682;SDS011;51107;47.652;19.016;2023-11-22T08:11:14;8.05;;;4.55;;
64682;SDS011;51107;47.652;19.016;2023-11-22T08:13:43;7.20;;;4.50;;
64682;SDS011;51107;47.652;19.016;2023-11-22T08:16:13;6.18;;;3.97;;
64682;SDS011;51107;47.652;19.016;2023-11-22T08:18:41;7.82;;;4.40;;
64682;SDS011;51107;47.652;19.016;2023-11-22T08:21:11;11.20;;;3.70;;
64682;SDS011;51107;47.652;19.016;2023-11-22T08:23:40;5.03;;;2.45;;
64682;SDS011;51107;47.652;19.016;2023-11-22T08:26:08;4.45;;;2.58;;
64682;SDS011;51107;47.652;19.016;2023-11-22T08:28:37;5.15;;;2.92;;
64682;SDS011;51107;47.652;19.016;2023-11-22T08:31:05;5.43;;;2.40;;
64682;SDS011;51107;47.652;19.016;2023-11-22T08:33:39;6.15;;;2.65;;
64682;SDS011;51107;47.652;19.016;2023-11-22T08:36:08;4.60;;;2.75;;
64682;SDS011;51107;47.652;19.016;2023-11-22T08:38:37;7.35;;;3.15;;
64682;SDS011;51107;47.652;19.016;2023-11-22T08:41:12;7.87;;;2.87;;
64682;SDS011;51107;47.652;19.016;2023-11-22T08:43:41;7.22;;;3.05;;
64682;SDS011;51107;47.652;19.016;2023-11-22T08:46:10;5.28;;;3.08;;
64682;SDS011;51107;47.652;19.016;2023-11-22T08:48:42;5.07;;;3.25;;
64682;SDS011;51107;47.652;19.016;2023-11-22T08:51:11;6.65;;;3.22;;
64682;SDS011;51107;47.652;19.016;2023-11-22T08:53:40;8.82;;;4.03;;
64682;SDS011;51107;47.652;19.016;2023-11-22T08:56:10;6.32;;;3.33;;
64682;SDS011;51107;47.652;19.016;2023-11-22T08:58:39;8.25;;;3.95;;
64682;SDS011;51107;47.652;19.016;2023-11-22T09:01:08;5.20;;;3.10;;
64682;SDS011;51107;47.652;19.016;2023-11-22T09:03:36;6.97;;;3.05;;
64682;SDS011;51107;47.652;19.016;2023-11-22T09:06:06;8.40;;;3.92;;
64682;SDS011;51107;47.652;19.016;2023-11-22T09:08:35;6.37;;;3.45;;
64682;SDS011;51107;47.652;19.016;2023-11-22T09:11:04;9.57;;;4.00;;
64682;SDS011;51107;47.652;19.016;2023-11-22T09:13:35;6.60;;;3.37;;
64682;SDS011;51107;47.652;19.016;2023-11-22T09:16:03;7.65;;;3.40;;
64682;SDS011;51107;47.652;19.016;2023-11-22T09:18:33;8.05;;;3.83;;
64682;SDS011;51107;47.652;19.016;2023-11-22T09:21:02;7.15;;;3.58;;
64682;SDS011;51107;47.652;19.016;2023-11-22T09:23:30;9.60;;;3.90;;
64682;SDS011;51107;47.652;19.016;2023-11-22T09:25:58;6.90;;;3.55;;
64682;SDS011;51107;47.652;19.016;2023-11-22T09:28:29;6.18;;;2.97;;
64682;SDS011;51107;47.652;19.016;2023-11-22T09:30:57;4.87;;;2.80;;
64682;SDS011;51107;47.652;19.016;2023-11-22T09:33:34;10.10;;;3.22;;
64682;SDS011;51107;47.652;19.016;2023-11-22T09:36:02;4.72;;;2.53;;
64682;SDS011;51107;47.652;19.016;2023-11-22T09:38:37;7.00;;;3.12;;
64682;SDS011;51107;47.652;19.016;2023-11-22T09:41:05;7.15;;;3.37;;
64682;SDS011;51107;47.652;19.016;2023-11-22T09:43:36;8.00;;;2.95;;
64682;SDS011;51107;47.652;19.016;2023-11-22T09:46:08;3.03;;;2.10;;
64682;SDS011;51107;47.652;19.016;2023-11-22T09:48:39;7.93;;;2.85;;
64682;SDS011;51107;47.652;19.016;2023-11-22T09:56:33;7.07;;;2.90;;
64682;SDS011;51107;47.652;19.016;2023-11-22T09:59:04;4.20;;;2.22;;
64682;SDS011;51107;47.652;19.016;2023-11-22T10:01:35;5.47;;;2.25;;
64682;SDS011;51107;47.652;19.016;2023-11-22T10:04:07;3.83;;;2.00;;
64682;SDS011;51107;47.652;19.016;2023-11-22T10:06:35;5.75;;;3.30;;
64682;SDS011;51107;47.652;19.016;2023-11-22T10:09:04;7.60;;;3.00;;
64682;SDS011;51107;47.652;19.016;2023-11-22T10:11:37;11.30;;;3.45;;
64682;SDS011;51107;47.652;19.016;2023-11-22T10:14:07;8.05;;;3.40;;
64682;SDS011;51107;47.652;19.016;2023-11-22T10:16:36;13.20;;;4.22;;
64682;SDS011;51107;47.652;19.016;2023-11-22T10:19:05;11.35;;;4.22;;
64682;SDS011;51107;47.652;19.016;2023-11-22T10:21:34;6.50;;;3.47;;
64682;SDS011;51107;47.652;19.016;2023-11-22T10:24:03;6.75;;;2.45;;
64682;SDS011;51107;47.652;19.016;2023-11-22T10:26:32;3.47;;;2.17;;
64682;SDS011;51107;47.652;19.016;2023-11-22T10:29:03;4.05;;;2.35;;
64682;SDS011;51107;47.652;19.016;2023-11-22T10:31:33;3.28;;;2.00;;
64682;SDS011;51107;47.652;19.016;2023-11-22T10:34:02;2.95;;;1.90;;
64682;SDS011;51107;47.652;19.016;2023-11-22T10:36:31;1.95;;;1.48;;
64682;SDS011;51107;47.652;19.016;2023-11-22T10:39:00;3.78;;;1.33;;
64682;SDS011;51107;47.652;19.016;2023-11-22T10:41:30;3.12;;;1.48;;
64682;SDS011;51107;47.652;19.016;2023-11-22T10:44:00;2.97;;;1.50;;
64682;SDS011;51107;47.652;19.016;2023-11-22T10:46:29;3.72;;;1.42;;
64682;SDS011;51107;47.652;19.016;2023-11-22T10:48:58;3.30;;;1.45;;
64682;SDS011;51107;47.652;19.016;2023-11-22T10:51:30;2.60;;;1.55;;
64682;SDS011;51107;47.652;19.016;2023-11-22T10:54:00;2.85;;;1.58;;
64682;SDS011;51107;47.652;19.016;2023-11-22T10:56:39;3.20;;;1.75;;
64682;SDS011;51107;47.652;19.016;2023-11-22T10:59:10;2.92;;;1.55;;
64682;SDS011;51107;47.652;19.016;2023-11-22T11:01:45;2.67;;;1.52;;
64682;SDS011;51107;47.652;19.016;2023-11-22T11:04:20;2.30;;;1.67;;
64682;SDS011;51107;47.652;19.016;2023-11-22T11:06:55;3.47;;;1.67;;
64682;SDS011;51107;47.652;19.016;2023-11-22T11:09:24;3.97;;;2.00;;
64682;SDS011;51107;47.652;19.016;2023-11-22T11:11:58;3.08;;;1.73;;
64682;SDS011;51107;47.652;19.016;2023-11-22T11:14:27;4.05;;;2.08;;
64682;SDS011;51107;47.652;19.016;2023-11-22T11:16:55;3.85;;;2.10;;
64682;SDS011;51107;47.652;19.016;2023-11-22T11:19:26;2.58;;;1.65;;
64682;SDS011;51107;47.652;19.016;2023-11-22T11:21:55;4.72;;;2.15;;
64682;SDS011;51107;47.652;19.016;2023-11-22T11:24:26;3.05;;;1.75;;
64682;SDS011;51107;47.652;19.016;2023-11-22T11:26:54;4.37;;;1.80;;
64682;SDS011;51107;47.652;19.016;2023-11-22T11:29:29;2.50;;;1.67;;
64682;SDS011;51107;47.652;19.016;2023-11-22T11:32:02;2.33;;;1.62;;
64682;SDS011;51107;47.652;19.016;2023-11-22T11:34:31;3.42;;;1.90;;
64682;SDS011;51107;47.652;19.016;2023-11-22T11:36:59;3.50;;;2.05;;
64682;SDS011;51107;47.652;19.016;2023-11-22T11:39:28;4.20;;;2.03;;
64682;SDS011;51107;47.652;19.016;2023-11-22T11:42:07;2.85;;;1.45;;
64682;SDS011;51107;47.652;19.016;2023-11-22T11:47:25;3.35;;;1.90;;
64682;SDS011;51107;47.652;19.016;2023-11-22T11:49:54;6.65;;;2.45;;
64682;SDS011;51107;47.652;19.016;2023-11-22T11:52:27;5.00;;;2.20;;
64682;SDS011;51107;47.652;19.016;2023-11-22T11:54:55;3.33;;;1.60;;
64682;SDS011;51107;47.652;19.016;2023-11-22T11:57:24;5.05;;;2.40;;
64682;SDS011;51107;47.652;19.016;2023-11-22T11:59:52;4.35;;;2.10;;
64682;SDS011;51107;47.652;19.016;2023-11-22T12:02:22;3.80;;;2.25;;
64682;SDS011;51107;47.652;19.016;2023-11-22T12:04:51;6.55;;;1.95;;
64682;SDS011;51107;47.652;19.016;2023-11-22T12:07:19;3.03;;;1.50;;
64682;SDS011;51107;47.652;19.016;2023-11-22T12:09:48;4.05;;;2.00;;
64682;SDS011;51107;47.652;19.016;2023-11-22T12:12:16;6.57;;;2.15;;
64682;SDS011;51107;47.652;19.016;2023-11-22T12:14:44;4.72;;;2.70;;
64682;SDS011;51107;47.652;19.016;2023-11-22T12:17:13;4.82;;;2.50;;
64682;SDS011;51107;47.652;19.016;2023-11-22T12:19:41;7.00;;;3.15;;
64682;SDS011;51107;47.652;19.016;2023-11-22T12:22:10;5.43;;;2.58;;
64682;SDS011;51107;47.652;19.016;2023-11-22T12:24:39;5.50;;;2.92;;
64682;SDS011;51107;47.652;19.016;2023-11-22T12:27:09;8.27;;;2.62;;
64682;SDS011;51107;47.652;19.016;2023-11-22T12:29:39;11.55;;;2.90;;
64682;SDS011;51107;47.652;19.016;2023-11-22T12:32:09;5.07;;;2.60;;
64682;SDS011;51107;47.652;19.016;2023-11-22T12:34:39;5.80;;;3.08;;
64682;SDS011;51107;47.652;19.016;2023-11-22T12:37:07;6.53;;;2.92;;
64682;SDS011;51107;47.652;19.016;2023-11-22T12:39:36;3.85;;;2.28;;
64682;SDS011;51107;47.652;19.016;2023-11-22T12:42:04;6.32;;;2.62;;
64682;SDS011;51107;47.652;19.016;2023-11-22T12:44:51;6.18;;;2.87;;
64682;SDS011;51107;47.652;19.016;2023-11-22T12:47:31;5.60;;;3.33;;
64682;SDS011;51107;47.652;19.016;2023-11-22T12:50:04;4.57;;;2.47;;
64682;SDS011;51107;47.652;19.016;2023-11-22T12:52:33;8.27;;;2.78;;
64682;SDS011;51107;47.652;19.016;2023-11-22T12:55:01;6.82;;;3.35;;
64682;SDS011;51107;47.652;19.016;2023-11-22T12:57:30;4.75;;;2.83;;
64682;SDS011;51107;47.652;19.016;2023-11-22T12:59:58;4.60;;;2.50;;
64682;SDS011;51107;47.652;19.016;2023-11-22T13:02:27;5.37;;;2.92;;
64682;SDS011;51107;47.652;19.016;2023-11-22T13:04:58;4.75;;;2.58;;
64682;SDS011;51107;47.652;19.016;2023-11-22T13:07:27;3.87;;;2.28;;
64682;SDS011;51107;47.652;19.016;2023-11-22T13:09:56;5.28;;;2.75;;
64682;SDS011;51107;47.652;19.016;2023-11-22T13:12:25;4.30;;;2.50;;
64682;SDS011;51107;47.652;19.016;2023-11-22T13:14:53;5.25;;;2.00;;
64682;SDS011;51107;47.652;19.016;2023-11-22T13:17:21;5.80;;;2.40;;
64682;SDS011;51107;47.652;19.016;2023-11-22T13:19:50;5.12;;;2.25;;
64682;SDS011;51107;47.652;19.016;2023-11-22T13:22:18;4.62;;;1.77;;
64682;SDS011;51107;47.652;19.016;2023-11-22T13:24:47;5.80;;;3.35;;
64682;SDS011;51107;47.652;19.016;2023-11-22T13:27:15;5.60;;;3.25;;
64682;SDS011;51107;47.652;19.016;2023-11-22T13:29:43;8.32;;;3.35;;
64682;SDS011;51107;47.652;19.016;2023-11-22T13:32:12;7.80;;;4.12;;
64682;SDS011;51107;47.652;19.016;2023-11-22T13:34:40;4.93;;;3.33;;
64682;SDS011;51107;47.652;19.016;2023-11-22T13:37:08;7.32;;;3.80;;
64682;SDS011;51107;47.652;19.016;2023-11-22T13:39:37;6.95;;;3.90;;
64682;SDS011;51107;47.652;19.016;2023-11-22T13:42:07;7.47;;;3.92;;
64682;SDS011;51107;47.652;19.016;2023-11-22T13:44:35;7.57;;;3.78;;
64682;SDS011;51107;47.652;19.016;2023-11-22T13:47:03;8.95;;;4.12;;
64682;SDS011;51107;47.652;19.016;2023-11-22T13:49:35;8.70;;;4.53;;
64682;SDS011;51107;47.652;19.016;2023-11-22T13:52:04;11.75;;;5.80;;
64682;SDS011;51107;47.652;19.016;2023-11-22T13:54:33;9.95;;;4.75;;
64682;SDS011;51107;47.652;19.016;2023-11-22T13:57:05;9.02;;;4.15;;
64682;SDS011;51107;47.652;19.016;2023-11-22T13:59:33;8.90;;;5.10;;
64682;SDS011;51107;47.652;19.016;2023-11-22T14:02:02;6.70;;;3.87;;
64682;SDS011;51107;47.652;19.016;2023-11-22T14:04:30;5.90;;;2.70;;
64682;SDS011;51107;47.652;19.016;2023-11-22T14:06:58;7.43;;;4.00;;
64682;SDS011;51107;47.652;19.016;2023-11-22T14:09:27;6.03;;;2.87;;
64682;SDS011;51107;47.652;19.016;2023-11-22T14:11:56;7.22;;;3.25;;
64682;SDS011;51107;47.652;19.016;2023-11-22T14:14:24;6.43;;;3.53;;
64682;SDS011;51107;47.652;19.016;2023-11-22T14:16:52;5.30;;;3.12;;
64682;SDS011;51107;47.652;19.016;2023-11-22T14:19:21;12.30;;;3.53;;
64682;SDS011;51107;47.652;19.016;2023-11-22T14:21:49;7.75;;;3.45;;
64682;SDS011;51107;47.652;19.016;2023-11-22T14:24:17;5.60;;;3.15;;
64682;SDS011;51107;47.652;19.016;2023-11-22T14:26:46;5.65;;;2.87;;
64682;SDS011;51107;47.652;19.016;2023-11-22T14:29:17;6.82;;;3.47;;
64682;SDS011;51107;47.652;19.016;2023-11-22T14:31:45;6.10;;;2.72;;
64682;SDS011;51107;47.652;19.016;2023-11-22T14:34:13;4.00;;;2.37;;
64682;SDS011;51107;47.652;19.016;2023-11-22T14:36:42;5.85;;;3.40;;
64682;SDS011;51107;47.652;19.016;2023-11-22T14:39:10;6.40;;;3.45;;
64682;SDS011;51107;47.652;19.016;2023-11-22T14:41:40;7.20;;;3.12;;
64682;SDS011;51107;47.652;19.016;2023-11-22T14:44:08;7.35;;;3.20;;
64682;SDS011;51107;47.652;19.016;2023-11-22T14:46:37;5.70;;;2.85;;
64682;SDS011;51107;47.652;19.016;2023-11-22T14:49:06;6.70;;;3.55;;
64682;SDS011;51107;47.652;19.016;2023-11-22T14:51:36;6.28;;;2.83;;
64682;SDS011;51107;47.652;19.016;2023-11-22T14:54:04;7.47;;;3.00;;